Charata, Argentina
Current Conditions -  °F | °C
As of 2:00 PM on Tuesday 21 Oct 2014 (Local Time) from SARE Reporting Station
Clear Clear  
Wind Chill: 90°   Ceiling: Unl
Heat Index: 90°   Visibility: 6mi
Dew Point: 46°   Wind: 8mph
Humidity: 22%   Direction: 110°ESE
Pressure: 30.03"   Gusts: NA
Location:  27.22°S, 61.2°W
Report Text: SARE 211700Z 11007KT CAVOK 32/08 Q1017
Loading
Personal Weather Stations






























Interactive Weather Map New forecast layout! Learn more

10-Day Weather Forecast

Advertisements
Track Severe Weather on mobile